Time;durP1;ratioP1;P1;durP2;ratioP2;P2;SDS_P1;SDS_P2;PMS_P1;PMS_P2;Temp;Humidity;BMP_temperature;BMP_pressure;BME280_temperature;BME280_humidity;BME280_pressure;Samples;Min_cycle;Max_cycle;Signal;HPM_P1;HPM_P2
2023/05/21 00:00:52;;;;;;;;;;;16.00;99.90;;;;;;4986895;28;19932;-74
2023/05/21 00:03:18;;;;;;;;;;;16.00;99.90;;;;;;4985238;28;19905;-74
2023/05/21 00:05:48;;;;;;;;;;;16.00;99.90;;;;;;4989448;28;19916;-75
2023/05/21 00:08:14;;;;;;;;;;;16.00;99.90;;;;;;4979004;28;20000;-75
2023/05/21 00:10:39;;;;;;;;;;;16.00;99.90;;;;;;4973810;28;20117;-74
2023/05/21 00:13:07;;;;;;;;;;;15.90;99.90;;;;;;4989359;28;19996;-74
2023/05/21 00:15:33;;;;;;;;;;;15.90;99.90;;;;;;4982998;28;19997;-73
2023/05/21 00:18:00;;;;;;;;;;;15.90;99.90;;;;;;4985965;28;20091;-76
2023/05/21 00:20:28;;;;;;;;;;;15.90;99.90;;;;;;4979141;28;19909;-77
2023/05/21 00:22:53;;;;;;;;;;;15.80;99.90;;;;;;4980187;28;20839;-76
2023/05/21 00:25:20;;;;;;;;;;;15.80;99.90;;;;;;4982642;28;19906;-75
2023/05/21 00:27:45;;;;;;;;;;;15.80;99.90;;;;;;4999841;28;19906;-76
2023/05/21 00:30:11;;;;;;;;;;;15.90;99.90;;;;;;4984187;28;20461;-76
2023/05/21 00:32:37;;;;;;;;;;;15.90;99.90;;;;;;4983710;28;20363;-73
2023/05/21 00:35:03;;;;;;;;;;;16.10;99.90;;;;;;4993351;28;20067;-73
2023/05/21 00:37:33;;;;;;;;;;;16.10;99.90;;;;;;4981034;28;20129;-74
2023/05/21 00:40:10;;;;;;;;;;;16.20;99.90;;;;;;4994850;28;19933;-74
2023/05/21 00:42:38;;;;;;;;;;;16.10;99.90;;;;;;4992733;28;19910;-72
2023/05/21 00:45:04;;;;;;;;;;;16.00;99.90;;;;;;4978072;28;20179;-72
2023/05/21 00:47:29;;;;;;;;;;;16.00;99.90;;;;;;4977697;28;20014;-74
2023/05/21 00:49:55;;;;;;;;;;;16.00;99.90;;;;;;4983654;28;20421;-73
2023/05/21 00:52:21;;;;;;;;;;;15.90;99.90;;;;;;4970801;28;20284;-75
2023/05/21 00:54:48;;;;;;;;;;;15.80;99.90;;;;;;4994024;28;19952;-75
2023/05/21 00:57:15;;;;;;;;;;;15.80;99.90;;;;;;4975291;28;19921;-76
2023/05/21 00:59:40;;;;;;;;;;;15.70;99.90;;;;;;4980646;28;19910;-76
2023/05/21 01:02:13;;;;;;;;;;;15.70;99.90;;;;;;4981453;28;20311;-76
2023/05/21 01:04:38;;;;;;;;;;;15.60;99.90;;;;;;4978938;28;20016;-76
2023/05/21 01:07:08;;;;;;;;;;;15.60;99.90;;;;;;4973780;28;20340;-76
2023/05/21 01:09:33;;;;;;;;;;;15.50;99.90;;;;;;4985832;28;20012;-76
2023/05/21 01:11:59;;;;;;;;;;;15.50;99.90;;;;;;4975902;28;20712;-76
2023/05/21 01:14:25;;;;;;;;;;;15.50;99.90;;;;;;4975212;28;19905;-76
2023/05/21 01:16:52;;;;;;;;;;;15.40;99.90;;;;;;4976325;28;19917;-76
2023/05/21 01:19:21;;;;;;;;;;;15.40;99.90;;;;;;4981129;28;19912;-76
2023/05/21 01:21:55;;;;;;;;;;;15.30;99.90;;;;;;4975887;28;19906;-76
2023/05/21 01:24:20;;;;;;;;;;;15.30;99.90;;;;;;4973790;28;20520;-76
2023/05/21 01:26:46;;;;;;;;;;;15.30;99.90;;;;;;4990950;28;20333;-76
2023/05/21 01:29:13;;;;;;;;;;;15.30;99.90;;;;;;4973651;28;19912;-76
2023/05/21 01:31:46;;;;;;;;;;;15.30;99.90;;;;;;4997803;28;19921;-76
2023/05/21 01:34:13;;;;;;;;;;;15.30;99.90;;;;;;4975025;28;20279;-76
2023/05/21 01:36:42;;;;;;;;;;;15.30;99.90;;;;;;4981403;28;19917;-75
2023/05/21 01:39:24;;;;;;;;;;;15.30;99.90;;;;;;4981021;28;19996;-75
2023/05/21 01:41:52;;;;;;;;;;;15.20;99.90;;;;;;4980052;28;20529;-76
2023/05/21 01:44:17;;;;;;;;;;;15.20;99.90;;;;;;4983699;28;19912;-75
2023/05/21 01:46:43;;;;;;;;;;;15.20;99.90;;;;;;4981268;28;19909;-76
2023/05/21 01:49:09;;;;;;;;;;;15.20;99.90;;;;;;4974252;28;19906;-76
2023/05/21 01:51:37;;;;;;;;;;;15.20;99.90;;;;;;4974837;28;19909;-75
2023/05/21 01:54:03;;;;;;;;;;;15.20;99.90;;;;;;4980554;28;19922;-75
2023/05/21 01:56:32;;;;;;;;;;;15.20;99.90;;;;;;4975843;28;20451;-75
2023/05/21 01:58:58;;;;;;;;;;;15.20;99.90;;;;;;4992933;28;19909;-75
2023/05/21 02:01:25;;;;;;;;;;;15.20;99.90;;;;;;4981601;28;20370;-76
2023/05/21 02:03:51;;;;;;;;;;;15.20;99.90;;;;;;4979691;28;20028;-76
2023/05/21 02:06:18;;;;;;;;;;;15.20;99.90;;;;;;4993599;28;20008;-76
2023/05/21 02:08:44;;;;;;;;;;;15.20;99.90;;;;;;4979806;28;19906;-79
2023/05/21 02:11:12;;;;;;;;;;;15.20;99.90;;;;;;4982053;28;19960;-75
2023/05/21 02:13:41;;;;;;;;;;;15.10;99.90;;;;;;4976788;28;20344;-75
2023/05/21 02:16:13;;;;;;;;;;;15.00;99.90;;;;;;4979196;28;20336;-73
2023/05/21 02:18:42;;;;;;;;;;;15.00;99.90;;;;;;4979841;28;19910;-73
2023/05/21 02:21:10;;;;;;;;;;;15.00;99.90;;;;;;4977223;28;19914;-73
2023/05/21 02:23:37;;;;;;;;;;;14.90;99.90;;;;;;4988535;28;19917;-73
2023/05/21 02:26:03;;;;;;;;;;;14.90;99.90;;;;;;4974445;28;19913;-73
2023/05/21 02:28:28;;;;;;;;;;;14.90;99.90;;;;;;4973003;28;19916;-74
2023/05/21 02:30:54;;;;;;;;;;;15.00;99.90;;;;;;4982026;28;19910;-73
2023/05/21 02:33:23;;;;;;;;;;;14.90;99.90;;;;;;4977906;28;20615;-74
2023/05/21 02:35:50;;;;;;;;;;;14.90;99.90;;;;;;4982947;28;19916;-73
2023/05/21 02:38:21;;;;;;;;;;;14.80;99.90;;;;;;4980774;28;19959;-73
2023/05/21 02:40:49;;;;;;;;;;;14.90;99.90;;;;;;4978838;28;19906;-73
2023/05/21 02:43:20;;;;;;;;;;;14.90;99.90;;;;;;4983613;28;19921;-73
2023/05/21 02:45:46;;;;;;;;;;;14.80;99.90;;;;;;4998300;28;19906;-74
2023/05/21 02:48:13;;;;;;;;;;;14.80;99.90;;;;;;4978775;28;20267;-73
2023/05/21 02:50:42;;;;;;;;;;;14.70;99.90;;;;;;4987484;28;19914;-73
2023/05/21 02:53:07;;;;;;;;;;;14.80;99.90;;;;;;4999063;28;19906;-73
2023/05/21 02:55:33;;;;;;;;;;;14.80;99.90;;;;;;4985228;28;20350;-73
2023/05/21 02:58:00;;;;;;;;;;;14.80;99.90;;;;;;4988715;28;20343;-73
2023/05/21 03:00:25;;;;;;;;;;;14.80;99.90;;;;;;4996661;28;20467;-73
2023/05/21 03:02:51;;;;;;;;;;;14.80;99.90;;;;;;4992056;28;19941;-74
2023/05/21 03:05:16;;;;;;;;;;;14.80;99.90;;;;;;4981878;28;19906;-73
2023/05/21 03:07:42;;;;;;;;;;;14.90;99.90;;;;;;4999479;28;19909;-73
2023/05/21 03:10:08;;;;;;;;;;;15.00;99.90;;;;;;4982916;28;19914;-73
2023/05/21 03:12:34;;;;;;;;;;;14.90;99.90;;;;;;4983190;28;20419;-73
2023/05/21 03:15:00;;;;;;;;;;;14.90;99.90;;;;;;5001775;28;20377;-73
2023/05/21 03:17:25;;;;;;;;;;;14.90;99.90;;;;;;4984500;28;20400;-74
2023/05/21 03:19:51;;;;;;;;;;;14.80;99.90;;;;;;4985502;28;19960;-73
2023/05/21 03:22:18;;;;;;;;;;;14.80;99.90;;;;;;4981919;28;19957;-74
2023/05/21 03:24:46;;;;;;;;;;;14.80;99.90;;;;;;4993771;28;19910;-73
2023/05/21 03:27:12;;;;;;;;;;;14.80;99.90;;;;;;4994541;28;19906;-72
2023/05/21 03:29:42;;;;;;;;;;;14.80;99.90;;;;;;4987213;28;19906;-74
2023/05/21 03:32:07;;;;;;;;;;;14.90;99.90;;;;;;4983025;28;19921;-73
2023/05/21 03:34:34;;;;;;;;;;;14.90;99.90;;;;;;4994844;28;19910;-73
2023/05/21 03:36:59;;;;;;;;;;;14.90;99.90;;;;;;4978467;28;19909;-73
2023/05/21 03:39:25;;;;;;;;;;;14.90;99.90;;;;;;4979039;28;19913;-74
2023/05/21 03:41:52;;;;;;;;;;;15.00;99.90;;;;;;4992187;28;20283;-73
2023/05/21 03:44:19;;;;;;;;;;;15.00;99.90;;;;;;4998461;28;19910;-73
2023/05/21 03:46:45;;;;;;;;;;;15.00;99.90;;;;;;4983889;28;19906;-75
2023/05/21 03:49:10;;;;;;;;;;;15.00;99.90;;;;;;4981032;28;19952;-73
2023/05/21 03:51:37;;;;;;;;;;;15.10;99.90;;;;;;4980435;28;19920;-74
2023/05/21 03:54:02;;;;;;;;;;;15.20;99.90;;;;;;4986974;28;19914;-74
2023/05/21 03:56:29;;;;;;;;;;;15.20;99.90;;;;;;4985069;28;19921;-73
2023/05/21 03:58:54;;;;;;;;;;;15.30;99.90;;;;;;4979103;28;19967;-74
2023/05/21 04:01:21;;;;;;;;;;;15.40;99.90;;;;;;4980551;28;19917;-73
2023/05/21 04:03:47;;;;;;;;;;;15.50;99.90;;;;;;4984657;28;19917;-73
2023/05/21 04:06:14;;;;;;;;;;;15.60;99.90;;;;;;4993604;28;19906;-74
2023/05/21 04:08:43;;;;;;;;;;;15.70;99.90;;;;;;4984791;28;19910;-73
2023/05/21 04:11:08;;;;;;;;;;;15.80;99.90;;;;;;4983779;28;19914;-73
2023/05/21 04:13:37;;;;;;;;;;;15.90;99.90;;;;;;4982819;28;19910;-74
2023/05/21 04:16:02;;;;;;;;;;;16.00;99.90;;;;;;4981153;28;19909;-74
2023/05/21 04:18:29;;;;;;;;;;;16.20;99.90;;;;;;4997399;28;19913;-75
2023/05/21 04:20:58;;;;;;;;;;;16.30;99.90;;;;;;4977099;28;19910;-76
2023/05/21 04:23:23;;;;;;;;;;;16.30;99.90;;;;;;4995357;28;20359;-76
2023/05/21 04:25:50;;;;;;;;;;;16.50;99.90;;;;;;4996116;28;19948;-76
2023/05/21 04:28:18;;;;;;;;;;;16.50;99.90;;;;;;5003070;28;19906;-76
2023/05/21 04:30:48;;;;;;;;;;;16.70;99.90;;;;;;4997752;28;19914;-76
2023/05/21 04:33:19;;;;;;;;;;;16.80;99.90;;;;;;4984652;28;20781;-74
2023/05/21 04:35:46;;;;;;;;;;;16.90;99.90;;;;;;4981638;28;20606;-74
2023/05/21 04:38:12;;;;;;;;;;;17.00;99.90;;;;;;4987723;28;19937;-74
2023/05/21 04:40:40;;;;;;;;;;;17.10;99.90;;;;;;4980517;28;19906;-74
2023/05/21 04:43:06;;;;;;;;;;;17.20;99.90;;;;;;4987081;28;19920;-74
2023/05/21 04:45:38;;;;;;;;;;;17.40;99.90;;;;;;4987213;28;19913;-74
2023/05/21 04:48:06;;;;;;;;;;;17.50;99.90;;;;;;4997692;28;20324;-73
2023/05/21 04:50:32;;;;;;;;;;;17.60;99.90;;;;;;4984718;28;19909;-74
2023/05/21 04:52:58;;;;;;;;;;;17.80;99.90;;;;;;4979323;28;19967;-74
2023/05/21 04:55:24;;;;;;;;;;;18.00;99.90;;;;;;4982844;28;19932;-73
2023/05/21 04:57:52;;;;;;;;;;;18.10;99.90;;;;;;4983711;28;19918;-73
2023/05/21 05:00:18;;;;;;;;;;;18.30;99.90;;;;;;4985864;28;19916;-73
2023/05/21 05:02:43;;;;;;;;;;;18.40;99.90;;;;;;4998954;28;19910;-75
2023/05/21 05:05:13;;;;;;;;;;;18.40;99.90;;;;;;4988288;28;19914;-74
2023/05/21 05:07:38;;;;;;;;;;;18.40;99.90;;;;;;4981742;28;20008;-74
2023/05/21 05:10:04;;;;;;;;;;;18.50;99.90;;;;;;4979258;28;20324;-73
2023/05/21 05:12:30;;;;;;;;;;;18.60;99.90;;;;;;4982068;28;19913;-74
2023/05/21 05:14:56;;;;;;;;;;;18.60;99.90;;;;;;4984784;28;19912;-74
2023/05/21 05:17:24;;;;;;;;;;;18.70;99.90;;;;;;4983375;28;19921;-73
2023/05/21 05:19:52;;;;;;;;;;;18.70;99.90;;;;;;4976233;28;19910;-74
2023/05/21 05:22:17;;;;;;;;;;;18.70;99.90;;;;;;4977636;28;19917;-74
2023/05/21 05:24:44;;;;;;;;;;;18.80;99.90;;;;;;4980356;28;19910;-74
2023/05/21 05:27:10;;;;;;;;;;;19.00;99.90;;;;;;4994877;28;19906;-75
2023/05/21 05:29:37;;;;;;;;;;;19.30;99.90;;;;;;4987494;28;19992;-74
2023/05/21 05:32:03;;;;;;;;;;;19.20;99.90;;;;;;4980099;28;20013;-74
2023/05/21 05:34:31;;;;;;;;;;;19.50;99.90;;;;;;4979743;28;19996;-74
2023/05/21 05:36:57;;;;;;;;;;;19.60;99.90;;;;;;4980280;28;20016;-74
2023/05/21 05:39:23;;;;;;;;;;;19.80;99.90;;;;;;4992885;28;19997;-74
2023/05/21 05:41:49;;;;;;;;;;;20.10;99.90;;;;;;4994439;28;20000;-74
2023/05/21 05:44:15;;;;;;;;;;;20.30;99.90;;;;;;4995519;28;19910;-74
2023/05/21 05:46:42;;;;;;;;;;;20.30;99.90;;;;;;4981573;28;19910;-74
2023/05/21 05:49:09;;;;;;;;;;;20.70;99.90;;;;;;4975439;28;19979;-74
2023/05/21 05:51:36;;;;;;;;;;;21.00;99.90;;;;;;4979626;28;19936;-74
2023/05/21 05:54:01;;;;;;;;;;;20.90;99.90;;;;;;4976380;28;19920;-74
2023/05/21 05:56:28;;;;;;;;;;;21.40;99.90;;;;;;4993753;28;19914;-74
2023/05/21 05:58:54;;;;;;;;;;;22.10;99.90;;;;;;4980200;28;19953;-72
2023/05/21 06:01:23;;;;;;;;;;;22.70;99.90;;;;;;4971881;28;20024;-71
2023/05/21 06:03:50;;;;;;;;;;;23.60;99.90;;;;;;4989116;28;19916;-72
2023/05/21 06:06:15;;;;;;;;;;;24.30;99.90;;;;;;4977160;28;19956;-72
2023/05/21 06:08:43;;;;;;;;;;;25.20;99.10;;;;;;4976883;28;19957;-72
2023/05/21 06:11:10;;;;;;;;;;;26.80;96.20;;;;;;4989516;28;19914;-72
2023/05/21 06:13:35;;;;;;;;;;;28.30;93.20;;;;;;4983767;28;19906;-72
2023/05/21 06:16:02;;;;;;;;;;;28.70;90.20;;;;;;4988046;28;20268;-73
2023/05/21 06:18:39;;;;;;;;;;;27.70;89.10;;;;;;4979777;28;19916;-72
2023/05/21 06:21:08;;;;;;;;;;;27.90;90.00;;;;;;4977623;28;19948;-72
2023/05/21 06:23:36;;;;;;;;;;;28.80;85.80;;;;;;4986868;28;19996;-72
2023/05/21 06:26:02;;;;;;;;;;;29.30;84.40;;;;;;4984015;28;19964;-72
2023/05/21 06:28:29;;;;;;;;;;;30.30;80.40;;;;;;4987689;28;19984;-73
2023/05/21 06:30:55;;;;;;;;;;;29.50;79.10;;;;;;5002676;28;19909;-72
2023/05/21 06:33:23;;;;;;;;;;;28.30;79.50;;;;;;4980399;28;19964;-73
2023/05/21 06:35:48;;;;;;;;;;;28.10;80.70;;;;;;4987611;28;19913;-72
2023/05/21 06:38:14;;;;;;;;;;;28.90;78.60;;;;;;4979948;28;19905;-73
2023/05/21 06:40:43;;;;;;;;;;;28.60;79.80;;;;;;5002279;28;19956;-73
2023/05/21 06:43:09;;;;;;;;;;;29.50;78.70;;;;;;5005554;28;19957;-71
2023/05/21 06:45:35;;;;;;;;;;;30.00;75.30;;;;;;4983277;28;19914;-72
2023/05/21 06:48:01;;;;;;;;;;;29.90;75.60;;;;;;4989400;28;19914;-80
2023/05/21 06:50:33;;;;;;;;;;;30.00;74.70;;;;;;4986078;28;19914;-78
2023/05/21 06:53:03;;;;;;;;;;;29.10;75.40;;;;;;4995675;28;20457;-78
2023/05/21 06:55:29;;;;;;;;;;;29.20;74.90;;;;;;4979446;28;20370;-79
2023/05/21 06:58:01;;;;;;;;;;;29.10;75.50;;;;;;4993135;28;19909;-78
2023/05/21 07:00:37;;;;;;;;;;;29.80;74.70;;;;;;4987739;28;19932;-78
2023/05/21 07:03:04;;;;;;;;;;;30.40;72.80;;;;;;4997999;28;19909;-78
2023/05/21 07:05:32;;;;;;;;;;;31.40;70.80;;;;;;4990288;28;19937;-80
2023/05/21 07:07:59;;;;;;;;;;;31.20;71.40;;;;;;4979945;28;19909;-78
2023/05/21 07:10:25;;;;;;;;;;;31.20;69.90;;;;;;5000422;28;19917;-77
2023/05/21 07:12:53;;;;;;;;;;;31.30;69.90;;;;;;5004359;28;20718;-79
2023/05/21 07:15:33;;;;;;;;;;;31.80;69.20;;;;;;4989566;28;19906;-77
2023/05/21 07:17:59;;;;;;;;;;;31.80;68.40;;;;;;4975160;28;20414;-78
2023/05/21 07:20:27;;;;;;;;;;;31.70;68.70;;;;;;4981473;28;19924;-77
2023/05/21 07:22:52;;;;;;;;;;;30.60;69.00;;;;;;5001124;28;19970;-77
2023/05/21 07:25:20;;;;;;;;;;;30.60;69.30;;;;;;4982675;28;20394;-77
2023/05/21 07:27:47;;;;;;;;;;;30.00;69.80;;;;;;4999547;28;20481;-78
2023/05/21 07:30:14;;;;;;;;;;;29.90;70.30;;;;;;4993225;28;20745;-77
2023/05/21 07:32:40;;;;;;;;;;;28.80;71.80;;;;;;4987473;28;19910;-77
2023/05/21 07:35:07;;;;;;;;;;;29.00;72.30;;;;;;4995711;28;19917;-77
2023/05/21 07:37:32;;;;;;;;;;;29.60;71.30;;;;;;4989219;28;19917;-77
2023/05/21 07:40:03;;;;;;;;;;;30.30;71.10;;;;;;4980578;28;19916;-77
2023/05/21 07:42:30;;;;;;;;;;;31.10;69.30;;;;;;4999713;28;20032;-77
2023/05/21 07:44:55;;;;;;;;;;;31.10;68.50;;;;;;4998806;28;20271;-73
2023/05/21 07:47:22;;;;;;;;;;;31.60;68.20;;;;;;4991491;28;19913;-74
2023/05/21 07:49:48;;;;;;;;;;;32.10;67.80;;;;;;4995486;28;19913;-73
2023/05/21 07:52:15;;;;;;;;;;;32.90;67.60;;;;;;4981285;28;19914;-74
2023/05/21 07:54:42;;;;;;;;;;;34.30;64.30;;;;;;4998269;28;20376;-73
2023/05/21 07:57:07;;;;;;;;;;;33.60;63.00;;;;;;4982051;28;20395;-72
2023/05/21 07:59:33;;;;;;;;;;;32.20;65.10;;;;;;4981887;28;19944;-72
2023/05/21 08:01:58;;;;;;;;;;;31.80;65.80;;;;;;4984333;28;19940;-73
2023/05/21 08:04:24;;;;;;;;;;;32.20;65.80;;;;;;4976771;28;19917;-73
2023/05/21 08:06:50;;;;;;;;;;;32.80;64.10;;;;;;4995962;28;19913;-72
2023/05/21 08:09:18;;;;;;;;;;;32.90;64.80;;;;;;4997314;28;19917;-72
2023/05/21 08:11:44;;;;;;;;;;;32.90;63.30;;;;;;5001613;28;19917;-71
2023/05/21 08:14:10;;;;;;;;;;;31.50;65.60;;;;;;4985458;28;19910;-72
2023/05/21 08:16:36;;;;;;;;;;;31.10;66.40;;;;;;4999131;28;19971;-72
2023/05/21 08:19:01;;;;;;;;;;;31.30;67.00;;;;;;4999297;28;20440;-72
2023/05/21 08:21:27;;;;;;;;;;;31.30;66.60;;;;;;4995194;28;19909;-73
2023/05/21 08:23:53;;;;;;;;;;;31.80;65.80;;;;;;4980170;28;19916;-72
2023/05/21 08:26:20;;;;;;;;;;;32.10;65.80;;;;;;4979131;28;19912;-72
2023/05/21 08:28:45;;;;;;;;;;;33.80;64.50;;;;;;4984139;28;20173;-72
2023/05/21 08:31:11;;;;;;;;;;;32.90;63.70;;;;;;4979371;28;20348;-71
2023/05/21 08:33:37;;;;;;;;;;;33.20;64.30;;;;;;4970824;28;19908;-72
2023/05/21 08:36:03;;;;;;;;;;;33.60;63.10;;;;;;4993600;28;19914;-71
2023/05/21 08:38:30;;;;;;;;;;;33.90;63.00;;;;;;4975908;28;19952;-72
2023/05/21 08:40:56;;;;;;;;;;;33.50;62.80;;;;;;4982906;28;19909;-72
2023/05/21 08:43:26;;;;;;;;;;;33.30;63.80;;;;;;4982821;28;19948;-72
2023/05/21 08:45:52;;;;;;;;;;;33.10;63.50;;;;;;4983906;28;19917;-69
2023/05/21 08:48:18;;;;;;;;;;;33.60;63.60;;;;;;4981890;28;19909;-70
2023/05/21 08:50:44;;;;;;;;;;;34.30;62.60;;;;;;4981886;28;20494;-68
2023/05/21 08:53:09;;;;;;;;;;;34.40;61.70;;;;;;4978886;28;19910;-69
2023/05/21 08:55:37;;;;;;;;;;;33.40;61.60;;;;;;4975569;28;19949;-72
2023/05/21 08:58:03;;;;;;;;;;;32.00;62.90;;;;;;4983555;28;19913;-72
2023/05/21 09:00:29;;;;;;;;;;;31.50;63.80;;;;;;4993649;28;20268;-73
2023/05/21 09:02:54;;;;;;;;;;;31.10;64.10;;;;;;4995862;28;19996;-73
2023/05/21 09:05:20;;;;;;;;;;;31.40;64.10;;;;;;4982000;28;19945;-72
2023/05/21 09:08:07;;;;;;;;;;;32.20;62.80;;;;;;4985194;28;19916;-72
2023/05/21 09:10:35;;;;;;;;;;;32.20;62.20;;;;;;4970860;28;19921;-72
2023/05/21 09:13:01;;;;;;;;;;;32.10;63.30;;;;;;4995332;28;19944;-72
2023/05/21 09:15:27;;;;;;;;;;;33.10;61.40;;;;;;4991183;28;19959;-72
2023/05/21 09:17:52;;;;;;;;;;;33.90;60.00;;;;;;4977601;28;19921;-69
2023/05/21 09:20:24;;;;;;;;;;;34.50;59.30;;;;;;4986595;28;20370;-71
2023/05/21 09:22:49;;;;;;;;;;;34.70;59.30;;;;;;4981181;28;19906;-72
2023/05/21 09:25:16;;;;;;;;;;;34.80;58.50;;;;;;4976791;28;19933;-72
2023/05/21 09:27:42;;;;;;;;;;;33.80;58.80;;;;;;4981191;28;20268;-72
2023/05/21 09:30:09;;;;;;;;;;;33.60;58.90;;;;;;4999201;28;20016;-71
2023/05/21 09:32:35;;;;;;;;;;;33.30;59.00;;;;;;4982875;28;20008;-72
2023/05/21 09:35:08;;;;;;;;;;;32.60;60.30;;;;;;4982744;28;19968;-72
2023/05/21 09:37:42;;;;;;;;;;;33.20;59.60;;;;;;4971379;28;19916;-72
2023/05/21 09:40:11;;;;;;;;;;;33.30;59.60;;;;;;4978143;28;19914;-72
2023/05/21 09:42:40;;;;;;;;;;;33.30;58.70;;;;;;4980577;28;20367;-72
2023/05/21 09:45:07;;;;;;;;;;;33.60;57.80;;;;;;4998458;28;20392;-76
2023/05/21 09:47:39;;;;;;;;;;;33.30;57.40;;;;;;4978254;28;19981;-77
2023/05/21 09:50:06;;;;;;;;;;;31.80;58.20;;;;;;4979055;28;19917;-73
2023/05/21 09:52:35;;;;;;;;;;;31.40;60.10;;;;;;4978736;28;19914;-70
2023/05/21 09:55:02;;;;;;;;;;;31.20;59.70;;;;;;4979536;28;19913;-78
2023/05/21 09:57:29;;;;;;;;;;;30.90;60.20;;;;;;4974313;28;19917;-72
2023/05/21 09:59:54;;;;;;;;;;;30.80;61.00;;;;;;4982404;28;19912;-73
2023/05/21 10:02:23;;;;;;;;;;;30.40;62.20;;;;;;4997447;28;19921;-74
2023/05/21 10:04:50;;;;;;;;;;;30.10;63.40;;;;;;4995836;28;19913;-74
2023/05/21 10:07:25;;;;;;;;;;;30.60;62.70;;;;;;4976877;28;20299;-73
2023/05/21 10:09:55;;;;;;;;;;;30.60;59.70;;;;;;4983266;28;19918;-73
2023/05/21 10:12:21;;;;;;;;;;;30.90;61.30;;;;;;4980192;28;19983;-75
2023/05/21 10:14:50;;;;;;;;;;;31.50;61.30;;;;;;4997596;28;19905;-73
2023/05/21 10:17:15;;;;;;;;;;;31.80;61.00;;;;;;4982461;28;20355;-71
2023/05/21 10:19:44;;;;;;;;;;;32.50;59.80;;;;;;4974678;28;19926;-74
2023/05/21 10:22:12;;;;;;;;;;;33.60;58.80;;;;;;4994610;28;19910;-71
2023/05/21 10:24:39;;;;;;;;;;;34.10;58.30;;;;;;4983103;28;19905;-76
2023/05/21 10:27:04;;;;;;;;;;;32.90;58.00;;;;;;4982520;28;20433;-71
2023/05/21 10:29:33;;;;;;;;;;;32.60;59.80;;;;;;4982841;28;19910;-73
2023/05/21 10:32:04;;;;;;;;;;;32.90;58.70;;;;;;4992247;28;19913;-76
2023/05/21 10:34:31;;;;;;;;;;;32.10;59.60;;;;;;4974686;28;19906;-72
2023/05/21 10:37:00;;;;;;;;;;;31.90;59.50;;;;;;4992781;28;20000;-73
2023/05/21 10:39:26;;;;;;;;;;;31.70;59.00;;;;;;4998928;28;19909;-74
2023/05/21 10:41:58;;;;;;;;;;;32.10;60.00;;;;;;4975977;28;19920;-71
2023/05/21 10:44:43;;;;;;;;;;;32.90;60.00;;;;;;4982470;28;20307;-74
2023/05/21 10:47:29;;;;;;;;;;;33.90;59.30;;;;;;5001084;28;19914;-72
2023/05/21 10:49:55;;;;;;;;;;;35.10;57.00;;;;;;4976567;28;20030;-71
2023/05/21 10:52:20;;;;;;;;;;;36.00;54.90;;;;;;4981288;28;20029;-71
2023/05/21 10:54:46;;;;;;;;;;;34.30;55.50;;;;;;4980677;28;19921;-70
2023/05/21 10:57:35;;;;;;;;;;;32.70;58.30;;;;;;5000819;28;19920;-72
2023/05/21 11:00:01;;;;;;;;;;;31.00;59.90;;;;;;4946091;28;20601;-73
2023/05/21 11:02:27;;;;;;;;;;;29.20;61.80;;;;;;4984332;28;19910;-74
2023/05/21 11:04:59;;;;;;;;;;;27.40;65.20;;;;;;4982468;28;20672;-72
2023/05/21 11:07:44;;;;;;;;;;;27.00;66.50;;;;;;5002071;28;19909;-73
2023/05/21 11:10:28;;;;;;;;;;;27.10;66.70;;;;;;4991476;28;19913;-73
2023/05/21 11:13:12;;;;;;;;;;;27.30;66.00;;;;;;4987279;28;19909;-73
2023/05/21 11:15:56;;;;;;;;;;;27.00;65.00;;;;;;4997191;28;20641;-74
2023/05/21 11:18:22;;;;;;;;;;;26.60;66.30;;;;;;4977169;28;20248;-75
2023/05/21 11:20:51;;;;;;;;;;;26.50;66.30;;;;;;5002377;28;20015;-72
2023/05/21 11:23:19;;;;;;;;;;;26.70;67.50;;;;;;4990635;28;19905;-73
2023/05/21 11:25:59;;;;;;;;;;;26.80;67.20;;;;;;4979668;28;20403;-71
2023/05/21 11:28:32;;;;;;;;;;;26.80;67.40;;;;;;4986509;28;19920;-71
2023/05/21 11:31:16;;;;;;;;;;;26.80;67.60;;;;;;4979034;28;19916;-71
2023/05/21 11:33:46;;;;;;;;;;;26.60;66.40;;;;;;4988262;28;19934;-74
2023/05/21 11:36:13;;;;;;;;;;;26.40;67.70;;;;;;4980452;28;19914;-73
2023/05/21 11:38:39;;;;;;;;;;;26.60;68.60;;;;;;4983704;28;20282;-73
2023/05/21 11:41:04;;;;;;;;;;;26.60;67.50;;;;;;4980471;28;19913;-78
2023/05/21 11:43:38;;;;;;;;;;;26.60;66.60;;;;;;4982805;28;20393;-75
2023/05/21 11:46:05;;;;;;;;;;;26.70;67.10;;;;;;4982210;28;20594;-72
2023/05/21 11:48:31;;;;;;;;;;;27.00;66.90;;;;;;4982711;28;19948;-71
2023/05/21 11:50:56;;;;;;;;;;;26.90;66.40;;;;;;4984825;28;19996;-71
2023/05/21 11:53:23;;;;;;;;;;;27.00;68.00;;;;;;4980575;28;19913;-71
2023/05/21 11:55:55;;;;;;;;;;;27.10;68.90;;;;;;4997724;28;19905;-74
2023/05/21 11:58:21;;;;;;;;;;;27.10;68.80;;;;;;4999359;28;19918;-71
2023/05/21 12:00:49;;;;;;;;;;;27.20;69.40;;;;;;4978638;28;20379;-72
2023/05/21 12:03:18;;;;;;;;;;;27.10;67.30;;;;;;5003762;28;19928;-74
2023/05/21 12:05:47;;;;;;;;;;;26.70;68.50;;;;;;4978666;28;19917;-75
2023/05/21 12:08:24;;;;;;;;;;;26.40;69.60;;;;;;4998114;28;19906;-74
2023/05/21 12:10:54;;;;;;;;;;;26.50;69.20;;;;;;4984605;28;19917;-75
2023/05/21 12:13:22;;;;;;;;;;;26.60;68.90;;;;;;4997865;28;19914;-74
2023/05/21 12:15:47;;;;;;;;;;;26.90;68.20;;;;;;4982889;28;19999;-73
2023/05/21 12:18:16;;;;;;;;;;;27.00;68.70;;;;;;4978831;28;20068;-76
2023/05/21 12:20:42;;;;;;;;;;;26.80;68.40;;;;;;4979365;28;19905;-76
2023/05/21 12:23:07;;;;;;;;;;;26.40;69.20;;;;;;4984601;28;20374;-73
2023/05/21 12:25:35;;;;;;;;;;;26.40;69.70;;;;;;4978813;28;20007;-74
2023/05/21 12:28:02;;;;;;;;;;;26.20;70.30;;;;;;4985235;28;20425;-71
2023/05/21 12:30:27;;;;;;;;;;;26.20;70.30;;;;;;4979744;28;19924;-71
2023/05/21 12:32:56;;;;;;;;;;;26.20;70.20;;;;;;4984129;28;19909;-70
2023/05/21 12:35:22;;;;;;;;;;;26.40;68.40;;;;;;4984947;28;19921;-73
2023/05/21 12:37:49;;;;;;;;;;;26.60;68.90;;;;;;4980819;28;19910;-74
2023/05/21 12:40:15;;;;;;;;;;;26.60;69.10;;;;;;4998451;28;19905;-80
2023/05/21 12:42:45;;;;;;;;;;;26.50;68.60;;;;;;4990478;28;19932;-81
2023/05/21 12:45:21;;;;;;;;;;;26.40;68.70;;;;;;4975875;28;19917;-81
2023/05/21 12:47:49;;;;;;;;;;;26.60;68.50;;;;;;4999393;28;19917;-81
2023/05/21 12:50:19;;;;;;;;;;;26.60;70.10;;;;;;4978683;28;19916;-81
2023/05/21 12:53:05;;;;;;;;;;;26.70;69.30;;;;;;4995959;28;20052;-80
2023/05/21 12:55:36;;;;;;;;;;;26.70;69.80;;;;;;4991572;28;20402;-80
2023/05/21 12:58:07;;;;;;;;;;;26.60;65.70;;;;;;4981893;28;20278;-81
2023/05/21 13:00:34;;;;;;;;;;;26.60;66.30;;;;;;4984319;28;19914;-79
2023/05/21 13:03:11;;;;;;;;;;;26.60;67.50;;;;;;4983101;28;19941;-82
2023/05/21 13:05:39;;;;;;;;;;;26.50;68.60;;;;;;4997210;28;19910;-81
2023/05/21 13:08:14;;;;;;;;;;;26.40;68.90;;;;;;4993638;28;19992;-82
2023/05/21 13:10:40;;;;;;;;;;;26.00;69.30;;;;;;4975957;28;19914;-83
2023/05/21 13:13:05;;;;;;;;;;;25.70;69.40;;;;;;4949282;28;1084917;-83
2023/05/21 13:15:34;;;;;;;;;;;25.70;70.30;;;;;;4986200;28;19913;-81
2023/05/21 13:17:59;;;;;;;;;;;25.80;69.30;;;;;;4980161;28;19913;-81
2023/05/21 13:20:30;;;;;;;;;;;26.20;70.30;;;;;;4995780;28;19960;-80
2023/05/21 13:22:56;;;;;;;;;;;26.40;69.50;;;;;;4994175;28;19913;-81
2023/05/21 13:25:31;;;;;;;;;;;26.50;69.70;;;;;;4980008;28;20036;-81
2023/05/21 13:28:01;;;;;;;;;;;26.60;66.40;;;;;;4996251;28;20496;-81
2023/05/21 13:30:27;;;;;;;;;;;26.60;65.80;;;;;;4980940;28;19968;-82
2023/05/21 13:32:53;;;;;;;;;;;26.50;64.90;;;;;;4988889;28;19949;-83
2023/05/21 13:35:20;;;;;;;;;;;26.20;64.90;;;;;;4980486;28;20384;-82
2023/05/21 13:37:50;;;;;;;;;;;26.20;66.00;;;;;;4977220;28;19917;-81
2023/05/21 13:40:16;;;;;;;;;;;26.20;65.90;;;;;;4998426;28;19964;-79
2023/05/21 13:42:43;;;;;;;;;;;26.20;65.60;;;;;;5001147;28;20380;-79
2023/05/21 13:45:11;;;;;;;;;;;26.40;66.40;;;;;;5005430;28;20355;-79
2023/05/21 13:47:37;;;;;;;;;;;26.50;65.80;;;;;;4979261;28;20631;-83
2023/05/21 13:50:03;;;;;;;;;;;26.30;64.20;;;;;;4983771;28;19945;-85
2023/05/21 13:52:29;;;;;;;;;;;26.10;64.60;;;;;;4979238;28;19913;-79
2023/05/21 13:55:00;;;;;;;;;;;26.10;64.80;;;;;;4979607;28;19916;-82
2023/05/21 13:57:29;;;;;;;;;;;26.10;66.00;;;;;;4999737;28;19913;-83
2023/05/21 13:59:57;;;;;;;;;;;26.10;61.80;;;;;;4987945;28;19994;-84
2023/05/21 14:02:29;;;;;;;;;;;26.00;63.20;;;;;;4981313;28;19937;-80
2023/05/21 14:04:57;;;;;;;;;;;26.10;66.20;;;;;;4998825;28;19912;-84
2023/05/21 14:07:26;;;;;;;;;;;26.10;64.70;;;;;;4976833;28;20471;-82
2023/05/21 14:09:52;;;;;;;;;;;25.90;64.10;;;;;;5003477;28;19913;-81
2023/05/21 14:12:18;;;;;;;;;;;25.80;63.70;;;;;;4983718;28;19920;-82
2023/05/21 14:14:48;;;;;;;;;;;25.80;64.80;;;;;;4981343;28;20008;-82
2023/05/21 14:17:19;;;;;;;;;;;25.90;64.40;;;;;;4992657;28;19917;-82
2023/05/21 14:19:44;;;;;;;;;;;25.90;63.40;;;;;;4978048;28;19910;-82